Time;durP1;ratioP1;P1;durP2;ratioP2;P2;SDS_P1;SDS_P2;PMS_P1;PMS_P2;Temp;Humidity;BMP_temperature;BMP_pressure;BME280_temperature;BME280_humidity;BME280_pressure;Samples;Min_cycle;Max_cycle;Signal;HPM_P1;HPM_P2
2021/10/02 00:44:51;;;;;;;5.97;5.38;;;14.50;99.90;;;;;;5028308;28;20221;-48
2021/10/02 00:47:19;;;;;;;5.93;5.32;;;14.70;99.90;;;;;;5032948;28;20465;-49
2021/10/02 00:49:46;;;;;;;6.35;5.72;;;14.50;99.90;;;;;;5027889;28;20178;-48
2021/10/02 00:52:16;;;;;;;6.40;5.38;;;14.50;99.90;;;;;;5027504;28;20194;-49
2021/10/02 00:54:43;;;;;;;5.63;5.13;;;14.70;99.90;;;;;;5020917;28;20186;-49
2021/10/02 00:57:09;;;;;;;5.50;5.00;;;14.60;99.90;;;;;;5027204;28;20590;-49
2021/10/02 00:59:36;;;;;;;6.30;5.47;;;14.50;99.90;;;;;;5022168;28;20225;-49
2021/10/02 01:02:29;;;;;;;5.82;5.13;;;14.40;99.90;;;;;;5026059;28;20567;-48
2021/10/02 01:04:56;;;;;;;6.90;5.40;;;14.30;99.90;;;;;;5022253;28;20186;-48
2021/10/02 01:07:41;;;;;;;6.20;5.60;;;14.50;99.90;;;;;;5024710;28;20195;-49
2021/10/02 01:10:37;;;;;;;5.88;5.28;;;14.70;99.90;;;;;;5018734;28;20190;-49
2021/10/02 01:13:24;;;;;;;7.88;5.43;;;14.50;99.90;;;;;;5027483;28;20221;-49
2021/10/02 01:16:19;;;;;;;7.75;6.85;;;14.30;99.90;;;;;;5023099;28;20190;-49
2021/10/02 01:19:04;;;;;;;6.22;5.72;;;14.10;99.90;;;;;;5026029;28;20229;-48
2021/10/02 01:21:47;;;;;;;6.65;5.82;;;14.70;99.90;;;;;;5028189;28;20280;-49
2021/10/02 01:24:34;;;;;;;6.30;5.70;;;14.20;99.90;;;;;;5026067;28;20183;-49
2021/10/02 01:27:32;;;;;;;6.43;5.82;;;14.30;99.90;;;;;;5026207;28;20178;-49
2021/10/02 01:30:02;;;;;;;5.72;5.22;;;14.20;99.90;;;;;;5028487;28;20280;-49
2021/10/02 01:32:36;;;;;;;6.45;5.80;;;14.30;99.90;;;;;;5030603;28;20725;-48
2021/10/02 01:48:43;;;;;;;5.47;4.88;;;14.60;99.90;;;;;;5036507;28;20205;-49
2021/10/02 01:51:11;;;;;;;6.05;5.38;;;14.20;99.90;;;;;;5034356;28;20193;-49
2021/10/02 01:53:38;;;;;;;6.20;4.80;;;14.60;99.90;;;;;;5035152;28;20635;-50
2021/10/02 01:56:07;;;;;;;6.25;5.70;;;14.70;99.90;;;;;;5025313;28;20218;-49
2021/10/02 01:58:34;;;;;;;6.03;5.43;;;14.60;99.90;;;;;;5032447;28;20300;-49
2021/10/02 02:01:02;;;;;;;6.00;5.15;;;14.60;99.90;;;;;;5025159;28;20193;-49
2021/10/02 02:03:33;;;;;;;5.40;4.95;;;14.50;99.90;;;;;;5039585;28;20182;-49
2021/10/02 02:06:01;;;;;;;5.78;5.20;;;14.50;99.90;;;;;;5029971;28;20178;-49
2021/10/02 02:08:28;;;;;;;6.03;4.68;;;14.50;99.90;;;;;;5025211;28;20714;-49
2021/10/02 02:10:55;;;;;;;6.40;5.80;;;14.50;99.90;;;;;;5029896;28;20193;-49
2021/10/02 02:13:23;;;;;;;6.00;5.28;;;14.50;99.90;;;;;;5028321;28;20555;-49
2021/10/02 02:15:50;;;;;;;8.25;5.22;;;14.60;99.90;;;;;;5027777;28;20178;-49
2021/10/02 02:18:20;;;;;;;5.20;4.70;;;14.50;99.90;;;;;;5038754;28;20311;-49
2021/10/02 02:20:56;;;;;;;5.72;5.22;;;14.40;99.90;;;;;;5040839;28;20184;-49
2021/10/02 02:23:23;;;;;;;7.03;5.75;;;14.20;99.90;;;;;;5037597;28;20187;-49
2021/10/02 02:25:49;;;;;;;6.15;5.40;;;14.20;99.90;;;;;;5032419;28;20235;-49
2021/10/02 02:28:18;;;;;;;5.82;5.32;;;14.60;99.90;;;;;;5038013;28;20952;-49
2021/10/02 02:30:44;;;;;;;6.38;5.78;;;14.50;99.90;;;;;;5029685;28;20187;-49
2021/10/02 02:33:11;;;;;;;6.45;5.22;;;14.50;99.90;;;;;;5037669;28;20228;-49
2021/10/02 02:35:36;;;;;;;6.10;5.50;;;14.60;99.90;;;;;;5030472;28;20198;-49
2021/10/02 02:38:02;;;;;;;6.57;5.30;;;14.50;99.90;;;;;;5030384;28;20214;-49
2021/10/02 02:40:28;;;;;;;5.47;4.72;;;14.60;99.90;;;;;;5034645;28;20220;-49
2021/10/02 02:42:54;;;;;;;6.07;5.40;;;14.70;99.90;;;;;;5039151;28;20289;-48
2021/10/02 02:45:21;;;;;;;5.90;5.40;;;14.90;99.90;;;;;;5031495;28;20186;-49
2021/10/02 02:47:57;;;;;;;6.50;5.40;;;14.70;99.90;;;;;;5031821;28;20468;-49
2021/10/02 02:50:57;;;;;;;6.78;5.28;;;14.80;99.90;;;;;;5037259;28;20219;-48
2021/10/02 02:53:36;;;;;;;5.72;4.85;;;14.80;99.90;;;;;;5033968;28;20197;-48
2021/10/02 02:56:36;;;;;;;6.00;4.97;;;14.80;99.90;;;;;;5039828;28;20189;-49
2021/10/02 02:59:09;;;;;;;5.70;5.20;;;14.40;99.90;;;;;;5019340;28;20229;-49
2021/10/02 03:01:40;;;;;;;6.13;5.40;;;14.60;99.90;;;;;;5045755;28;20197;-49
2021/10/02 03:04:12;;;;;;;5.75;5.00;;;14.40;99.90;;;;;;5031998;28;20696;-49
2021/10/02 03:06:43;;;;;;;5.32;4.85;;;14.50;99.90;;;;;;5038992;28;20251;-49
2021/10/02 03:09:09;;;;;;;6.53;5.55;;;14.60;99.90;;;;;;5038914;28;20215;-49
2021/10/02 03:11:35;;;;;;;5.22;4.57;;;14.40;99.90;;;;;;5033182;28;20641;-49
2021/10/02 03:14:03;;;;;;;5.78;5.25;;;14.70;99.90;;;;;;5029089;28;20266;-49
2021/10/02 03:16:30;;;;;;;5.60;5.00;;;14.90;99.90;;;;;;5032284;28;20186;-49
2021/10/02 03:19:00;;;;;;;5.53;5.00;;;14.70;99.90;;;;;;5022886;28;20228;-49
2021/10/02 03:21:27;;;;;;;5.80;5.30;;;14.60;99.90;;;;;;5024405;28;20182;-49
2021/10/02 03:23:53;;;;;;;5.25;4.75;;;14.60;99.90;;;;;;5029182;28;20174;-48
2021/10/02 03:26:19;;;;;;;5.13;4.70;;;14.60;99.90;;;;;;5020569;28;20230;-49
2021/10/02 03:28:46;;;;;;;6.38;5.78;;;14.50;99.90;;;;;;5027339;28;20207;-49
2021/10/02 03:31:12;;;;;;;5.47;4.95;;;14.70;99.90;;;;;;5032651;28;20247;-49
2021/10/02 03:33:39;;;;;;;6.35;5.75;;;14.30;99.90;;;;;;5027671;28;20187;-49
2021/10/02 03:36:06;;;;;;;5.80;5.30;;;14.40;99.90;;;;;;5027393;28;20202;-49
2021/10/02 03:38:32;;;;;;;6.50;5.38;;;14.40;99.90;;;;;;5025859;28;20248;-49
2021/10/02 03:41:02;;;;;;;5.72;5.22;;;14.70;99.90;;;;;;5030812;28;20189;-49
2021/10/02 03:43:33;;;;;;;6.00;5.32;;;14.40;99.90;;;;;;5031507;28;20186;-48
2021/10/02 03:46:00;;;;;;;5.40;4.90;;;14.40;99.90;;;;;;5028767;28;20186;-49
2021/10/02 03:48:27;;;;;;;6.15;4.68;;;14.40;99.90;;;;;;5031562;28;20237;-49
2021/10/02 03:50:53;;;;;;;5.38;4.88;;;14.50;99.90;;;;;;5014265;28;20201;-49
2021/10/02 03:53:19;;;;;;;5.90;5.40;;;14.30;99.90;;;;;;5028849;28;20183;-49
2021/10/02 03:55:45;;;;;;;5.60;5.10;;;14.40;99.90;;;;;;5027532;28;20602;-49
2021/10/02 03:58:10;;;;;;;7.00;5.03;;;14.40;99.90;;;;;;5036047;28;20218;-48
2021/10/02 04:00:36;;;;;;;5.37;4.90;;;14.10;99.90;;;;;;5032908;28;20190;-49
2021/10/02 04:03:02;;;;;;;5.90;5.37;;;14.40;99.90;;;;;;5032062;28;20266;-49
2021/10/02 04:05:28;;;;;;;5.90;5.30;;;14.10;99.90;;;;;;5032810;28;20182;-49
2021/10/02 04:07:53;;;;;;;8.43;6.60;;;14.10;99.90;;;;;;5026349;28;20214;-49
2021/10/02 04:10:19;;;;;;;5.50;4.80;;;14.30;99.90;;;;;;5035938;28;20225;-49
2021/10/02 04:12:45;;;;;;;5.67;5.17;;;14.00;99.90;;;;;;5037761;28;20289;-49
2021/10/02 04:15:11;;;;;;;6.27;5.67;;;14.00;99.90;;;;;;5030656;28;20662;-49
2021/10/02 04:17:37;;;;;;;6.30;5.43;;;14.10;99.90;;;;;;5031651;28;20563;-49
2021/10/02 04:20:04;;;;;;;5.33;4.83;;;14.20;99.90;;;;;;5028130;28;20625;-49
2021/10/02 04:22:30;;;;;;;6.57;5.93;;;14.00;99.90;;;;;;5034072;28;20437;-49
2021/10/02 04:24:56;;;;;;;6.55;5.95;;;14.00;99.90;;;;;;5021472;28;20186;-49
2021/10/02 04:27:22;;;;;;;5.87;5.37;;;14.00;99.90;;;;;;5022791;28;20248;-49
2021/10/02 04:29:48;;;;;;;6.47;5.87;;;14.10;99.90;;;;;;5023534;28;20190;-50
2021/10/02 04:32:14;;;;;;;6.82;5.60;;;14.30;99.90;;;;;;5031523;28;20194;-49
2021/10/02 04:34:41;;;;;;;6.10;5.50;;;14.10;99.90;;;;;;5031492;28;20646;-49
2021/10/02 04:37:07;;;;;;;6.82;6.07;;;14.20;99.90;;;;;;5026894;28;20937;-49
2021/10/02 04:39:33;;;;;;;6.03;5.43;;;14.00;99.90;;;;;;5023392;28;20209;-49
2021/10/02 04:41:58;;;;;;;6.05;5.47;;;13.80;99.90;;;;;;5033735;28;20842;-49
2021/10/02 04:44:25;;;;;;;7.60;6.53;;;14.20;99.90;;;;;;5026070;28;20182;-48
2021/10/02 04:46:52;;;;;;;7.60;5.72;;;13.80;99.90;;;;;;5030003;28;20284;-49
2021/10/02 04:49:18;;;;;;;7.05;6.35;;;14.00;99.90;;;;;;5030284;28;20300;-49
2021/10/02 04:51:43;;;;;;;6.73;5.80;;;13.80;99.90;;;;;;5034116;28;20269;-49
2021/10/02 04:54:10;;;;;;;6.43;5.83;;;13.80;99.90;;;;;;5026261;28;20194;-49
2021/10/02 04:56:37;;;;;;;6.85;6.15;;;14.00;99.90;;;;;;5030325;28;20683;-50
2021/10/02 04:59:03;;;;;;;10.50;6.45;;;13.80;99.90;;;;;;5025906;28;20225;-50
2021/10/02 05:01:28;;;;;;;6.55;5.57;;;14.00;99.90;;;;;;5027072;28;20178;-49
2021/10/02 05:03:54;;;;;;;7.80;6.53;;;14.10;99.90;;;;;;5021776;28;20182;-50
2021/10/02 05:06:20;;;;;;;7.30;6.20;;;13.80;99.90;;;;;;5027465;28;20461;-50
2021/10/02 05:08:48;;;;;;;8.67;6.97;;;14.00;99.90;;;;;;5029608;28;20210;-51
2021/10/02 05:11:14;;;;;;;7.70;6.05;;;13.90;99.90;;;;;;5031950;28;20467;-50
2021/10/02 05:13:40;;;;;;;8.15;6.28;;;14.20;99.90;;;;;;5033102;28;20183;-49
2021/10/02 05:16:05;;;;;;;8.67;7.07;;;13.90;99.90;;;;;;5030841;28;20205;-49
2021/10/02 05:18:31;;;;;;;10.10;5.73;;;14.00;99.90;;;;;;5028820;28;20559;-49
2021/10/02 05:20:57;;;;;;;6.37;5.77;;;14.10;99.90;;;;;;5031757;28;20185;-50
2021/10/02 05:23:23;;;;;;;7.00;5.90;;;14.20;99.90;;;;;;5029438;28;20583;-52
2021/10/02 05:25:49;;;;;;;6.80;6.20;;;14.40;99.90;;;;;;5022982;28;20186;-50
2021/10/02 05:28:15;;;;;;;9.05;7.07;;;13.80;99.90;;;;;;5022898;28;20492;-49
2021/10/02 05:30:41;;;;;;;7.23;6.23;;;14.00;99.90;;;;;;5027444;28;20186;-50
2021/10/02 05:33:07;;;;;;;6.70;6.00;;;14.00;99.90;;;;;;5028164;28;20277;-50
2021/10/02 05:35:33;;;;;;;6.90;6.20;;;14.00;99.90;;;;;;5023491;28;20457;-52
2021/10/02 05:38:00;;;;;;;7.10;6.50;;;14.30;99.90;;;;;;5025967;28;20241;-49
2021/10/02 05:40:26;;;;;;;7.95;7.00;;;14.40;99.90;;;;;;5022616;28;20186;-50
2021/10/02 05:42:53;;;;;;;6.43;5.82;;;14.00;99.90;;;;;;5028789;28;20187;-50
2021/10/02 05:45:19;;;;;;;7.10;6.18;;;14.30;99.90;;;;;;5025235;28;20186;-50
2021/10/02 05:47:45;;;;;;;7.05;5.90;;;13.90;99.90;;;;;;5031283;28;20374;-50
2021/10/02 05:50:11;;;;;;;8.80;6.38;;;14.10;99.90;;;;;;5030247;28;20185;-50
2021/10/02 05:52:37;;;;;;;6.90;6.20;;;14.00;99.90;;;;;;5026340;28;20579;-49
2021/10/02 05:55:03;;;;;;;5.80;5.30;;;14.30;99.90;;;;;;5025905;28;20878;-50
2021/10/02 05:57:29;;;;;;;7.40;6.57;;;14.30;99.90;;;;;;5030512;28;20206;-56
2021/10/02 05:59:54;;;;;;;6.53;5.93;;;14.50;99.90;;;;;;5023230;28;20182;-50
2021/10/02 06:02:20;;;;;;;6.40;5.80;;;14.40;99.90;;;;;;5029860;28;20182;-49
2021/10/02 06:04:47;;;;;;;9.03;6.70;;;14.40;99.90;;;;;;5018863;28;20217;-50
2021/10/02 06:07:12;;;;;;;12.00;5.68;;;14.50;99.90;;;;;;5030652;28;20193;-49
2021/10/02 06:09:38;;;;;;;11.93;6.27;;;14.40;99.90;;;;;;5022418;28;20198;-49
2021/10/02 06:12:04;;;;;;;10.50;6.70;;;14.50;99.90;;;;;;5022724;28;20193;-50
2021/10/02 06:14:29;;;;;;;6.60;5.97;;;14.70;99.90;;;;;;5024981;28;20539;-49
2021/10/02 06:16:55;;;;;;;6.90;6.20;;;14.80;99.90;;;;;;5029751;28;20954;-50
2021/10/02 06:19:21;;;;;;;6.70;6.10;;;14.90;99.90;;;;;;5024481;28;20260;-50
2021/10/02 06:21:47;;;;;;;6.50;5.90;;;14.90;99.90;;;;;;5024591;28;20174;-49
2021/10/02 06:24:13;;;;;;;7.93;6.50;;;15.10;99.90;;;;;;5028792;28;20186;-49
2021/10/02 06:26:39;;;;;;;8.48;6.25;;;15.10;99.90;;;;;;5025663;28;21033;-50
2021/10/02 06:29:07;;;;;;;7.53;6.20;;;15.40;99.90;;;;;;5019640;28;20215;-50
2021/10/02 06:31:33;;;;;;;7.25;6.55;;;15.40;99.90;;;;;;5027300;28;20449;-50
2021/10/02 06:33:59;;;;;;;10.90;7.33;;;15.20;99.90;;;;;;5023640;28;20244;-50
2021/10/02 06:36:27;;;;;;;6.80;6.20;;;15.40;99.90;;;;;;5025810;28;20454;-49
2021/10/02 06:38:53;;;;;;;6.97;6.28;;;15.30;99.90;;;;;;5026003;28;20222;-51
2021/10/02 06:41:19;;;;;;;7.40;6.65;;;15.30;99.90;;;;;;5025695;28;20182;-50
2021/10/02 06:43:45;;;;;;;9.90;6.70;;;15.50;99.90;;;;;;5018014;28;20179;-51
2021/10/02 06:46:11;;;;;;;8.53;6.20;;;15.60;99.90;;;;;;5024699;28;20201;-49
2021/10/02 06:48:37;;;;;;;8.60;6.37;;;15.40;99.90;;;;;;5028076;28;20236;-50
2021/10/02 06:51:03;;;;;;;6.60;6.00;;;15.50;99.90;;;;;;5026541;28;20997;-48
2021/10/02 06:53:28;;;;;;;7.73;5.63;;;15.50;99.90;;;;;;5021956;28;20182;-47
2021/10/02 06:55:54;;;;;;;8.83;5.97;;;15.50;99.90;;;;;;5022675;28;20197;-48
2021/10/02 06:58:20;;;;;;;7.37;6.63;;;15.70;99.90;;;;;;5014140;28;20225;-48
2021/10/02 07:00:45;;;;;;;7.63;6.40;;;15.80;99.90;;;;;;5027578;28;20269;-49
2021/10/02 07:03:13;;;;;;;8.07;6.83;;;15.60;99.90;;;;;;5024512;28;20182;-49
2021/10/02 07:05:38;;;;;;;6.15;5.53;;;15.70;99.90;;;;;;5030704;28;20171;-49
2021/10/02 07:08:04;;;;;;;5.90;5.30;;;16.10;99.90;;;;;;5020238;28;20225;-49
2021/10/02 07:10:30;;;;;;;6.37;5.77;;;15.60;99.90;;;;;;5023119;28;20626;-49
2021/10/02 07:12:56;;;;;;;6.97;6.27;;;16.10;99.90;;;;;;5029285;28;20445;-48
2021/10/02 07:15:22;;;;;;;6.70;6.07;;;16.20;99.90;;;;;;5027684;28;20191;-49
2021/10/02 07:17:47;;;;;;;7.10;6.40;;;16.40;99.90;;;;;;5032513;28;20272;-49
2021/10/02 07:20:14;;;;;;;7.43;6.60;;;16.40;99.90;;;;;;5031586;28;20440;-49
2021/10/02 07:22:41;;;;;;;6.50;5.90;;;16.50;99.90;;;;;;5030211;28;20464;-50
2021/10/02 07:25:10;;;;;;;8.95;6.50;;;16.90;99.90;;;;;;5033461;28;20206;-49
2021/10/02 07:27:36;;;;;;;6.35;5.60;;;17.00;99.90;;;;;;5029972;28;20183;-49
2021/10/02 07:30:03;;;;;;;7.22;6.55;;;17.30;99.90;;;;;;5030347;28;20194;-51
2021/10/02 07:32:29;;;;;;;7.43;6.72;;;17.20;99.90;;;;;;5032306;28;20192;-51
2021/10/02 07:34:55;;;;;;;7.20;5.77;;;16.90;99.90;;;;;;5031701;28;20205;-51
2021/10/02 07:37:21;;;;;;;6.53;5.93;;;16.50;99.90;;;;;;5031093;28;20636;-50
2021/10/02 07:39:46;;;;;;;7.00;5.97;;;17.10;99.90;;;;;;5029469;28;20175;-50
2021/10/02 07:42:14;;;;;;;9.20;6.80;;;17.20;99.90;;;;;;5031664;28;20273;-51
2021/10/02 07:44:42;;;;;;;9.15;8.20;;;17.00;99.90;;;;;;5025362;28;20321;-55
2021/10/02 07:47:09;;;;;;;8.50;7.43;;;17.00;99.90;;;;;;5018295;28;20178;-50
2021/10/02 07:49:36;;;;;;;8.95;6.70;;;17.30;99.90;;;;;;5018988;28;20198;-50
2021/10/02 07:52:03;;;;;;;6.80;6.10;;;17.60;99.90;;;;;;5021749;28;20179;-51
2021/10/02 07:54:31;;;;;;;6.97;6.28;;;17.30;99.90;;;;;;5023816;28;20191;-49
2021/10/02 07:56:59;;;;;;;8.60;7.80;;;17.80;99.90;;;;;;5028327;28;20178;-50
2021/10/02 07:59:26;;;;;;;7.47;6.80;;;17.90;99.90;;;;;;5029282;28;20213;-49
2021/10/02 08:01:53;;;;;;;7.80;6.72;;;17.60;99.90;;;;;;5033926;28;20550;-50
2021/10/02 08:04:19;;;;;;;8.02;7.32;;;18.00;99.90;;;;;;5026320;28;20186;-50
2021/10/02 08:06:47;;;;;;;7.37;6.23;;;18.10;99.90;;;;;;5029984;28;20548;-49
2021/10/02 08:09:13;;;;;;;7.07;5.55;;;18.20;99.90;;;;;;5029093;28;20477;-49
2021/10/02 08:11:40;;;;;;;7.05;6.20;;;18.30;99.90;;;;;;5028013;28;20571;-49
2021/10/02 08:14:07;;;;;;;7.10;6.50;;;18.40;99.90;;;;;;5027814;28;20199;-49
2021/10/02 08:16:36;;;;;;;6.03;5.43;;;18.50;99.90;;;;;;5026551;28;20660;-52
2021/10/02 08:19:02;;;;;;;6.90;6.15;;;18.60;99.70;;;;;;5026813;28;20226;-52
2021/10/02 08:21:29;;;;;;;7.03;6.35;;;18.60;99.60;;;;;;5029638;28;20177;-53
2021/10/02 08:23:55;;;;;;;7.20;5.38;;;18.60;99.60;;;;;;5031943;28;20192;-53
2021/10/02 08:26:22;;;;;;;7.13;6.50;;;18.80;99.40;;;;;;5023604;28;20268;-52
2021/10/02 08:28:51;;;;;;;6.65;6.05;;;18.90;99.00;;;;;;5023178;28;20226;-53
2021/10/02 08:31:22;;;;;;;6.50;5.93;;;19.00;98.90;;;;;;5038843;28;20190;-52
2021/10/02 08:33:49;;;;;;;6.22;5.63;;;19.10;97.90;;;;;;5035031;28;20561;-52
2021/10/02 08:36:15;;;;;;;5.97;5.30;;;19.10;97.90;;;;;;5038659;28;20205;-53
2021/10/02 08:38:41;;;;;;;5.57;5.07;;;18.70;98.00;;;;;;5026202;28;20216;-53
2021/10/02 08:41:07;;;;;;;4.70;4.27;;;18.80;98.10;;;;;;5030304;28;20236;-52
2021/10/02 08:43:35;;;;;;;4.00;3.63;;;19.10;97.40;;;;;;5026691;28;20857;-52
2021/10/02 08:46:03;;;;;;;4.38;3.78;;;19.30;95.90;;;;;;5027925;28;20547;-51
2021/10/02 08:48:29;;;;;;;4.65;3.20;;;19.40;95.50;;;;;;5029920;28;20210;-52
2021/10/02 08:50:57;;;;;;;3.00;2.55;;;19.50;93.70;;;;;;5029474;28;20668;-52
2021/10/02 08:53:28;;;;;;;3.40;3.08;;;19.60;92.40;;;;;;5026018;28;20194;-51
2021/10/02 08:55:54;;;;;;;3.63;3.08;;;19.60;92.60;;;;;;5031445;28;20271;-52
2021/10/02 08:58:20;;;;;;;2.95;2.67;;;19.80;92.60;;;;;;5033173;28;20210;-52
2021/10/02 09:00:46;;;;;;;8.82;3.90;;;20.40;90.70;;;;;;5022787;28;20175;-52
2021/10/02 09:03:12;;;;;;;2.50;2.28;;;21.20;88.60;;;;;;5029211;28;20555;-52
2021/10/02 09:05:38;;;;;;;3.13;2.83;;;21.70;83.80;;;;;;5029294;28;20189;-52
2021/10/02 09:08:04;;;;;;;2.63;2.43;;;21.80;82.70;;;;;;5026161;28;20214;-52
2021/10/02 09:10:33;;;;;;;2.60;2.40;;;21.80;79.20;;;;;;5026356;28;20182;-52
2021/10/02 09:12:59;;;;;;;2.30;2.10;;;21.90;78.10;;;;;;5030074;28;20189;-53
2021/10/02 09:15:25;;;;;;;2.23;1.90;;;21.90;76.20;;;;;;5023099;28;20231;-52
2021/10/02 09:17:51;;;;;;;2.83;2.17;;;21.80;74.30;;;;;;5028107;28;20476;-52
2021/10/02 09:20:18;;;;;;;2.67;1.90;;;21.90;73.90;;;;;;5034933;28;20239;-52
2021/10/02 09:22:57;;;;;;;3.23;2.50;;;22.30;74.00;;;;;;5029732;28;20182;-52
2021/10/02 09:25:24;;;;;;;2.77;2.20;;;22.80;72.30;;;;;;5010721;28;20430;-52
2021/10/02 09:28:11;;;;;;;3.87;2.80;;;23.80;70.80;;;;;;5027100;28;20544;-52
2021/10/02 09:30:40;;;;;;;2.87;2.60;;;24.00;68.00;;;;;;5022475;28;20436;-52
2021/10/02 09:33:12;;;;;;;2.40;2.10;;;24.50;66.20;;;;;;5022914;28;20513;-52
2021/10/02 09:35:40;;;;;;;2.40;2.20;;;24.40;65.70;;;;;;5019701;28;20456;-52
2021/10/02 09:38:11;;;;;;;2.47;2.00;;;24.40;65.20;;;;;;5026513;28;20496;-52
2021/10/02 09:40:37;;;;;;;2.77;2.57;;;24.80;65.40;;;;;;5016495;28;20843;-52
2021/10/02 09:43:04;;;;;;;2.90;2.60;;;25.70;63.10;;;;;;5025251;28;20441;-52
2021/10/02 09:45:39;;;;;;;3.73;3.30;;;27.20;59.50;;;;;;5027571;28;20441;-52
2021/10/02 09:48:16;;;;;;;3.17;2.87;;;28.20;57.80;;;;;;5027645;28;20833;-53
2021/10/02 09:50:45;;;;;;;3.63;2.40;;;28.90;55.20;;;;;;5019793;28;20833;-53
2021/10/02 09:53:13;;;;;;;2.80;2.60;;;29.80;53.10;;;;;;5020419;28;20978;-53
2021/10/02 09:55:41;;;;;;;3.43;2.90;;;30.00;52.20;;;;;;5023745;28;20988;-53
2021/10/02 09:58:09;;;;;;;2.50;2.30;;;30.10;52.20;;;;;;5039232;28;20478;-53
2021/10/02 10:00:43;;;;;;;3.03;2.80;;;30.50;50.90;;;;;;5022688;28;20520;-53
2021/10/02 10:03:11;;;;;;;3.07;2.77;;;30.60;51.00;;;;;;5023358;28;20478;-53
2021/10/02 10:05:40;;;;;;;3.30;3.10;;;29.90;50.60;;;;;;5034576;28;20558;-52
2021/10/02 10:08:09;;;;;;;2.90;2.70;;;29.70;51.60;;;;;;5027801;28;20461;-52
2021/10/02 10:10:40;;;;;;;2.83;2.50;;;29.10;52.00;;;;;;5014581;28;20432;-52
2021/10/02 10:13:21;;;;;;;3.40;3.10;;;28.10;54.00;;;;;;5016820;28;20564;-52
2021/10/02 10:15:54;;;;;;;3.57;3.27;;;26.90;55.90;;;;;;5019220;28;20477;-52
2021/10/02 10:18:38;;;;;;;3.20;3.00;;;26.40;57.60;;;;;;5024035;28;20486;-52
2021/10/02 10:21:11;;;;;;;4.70;2.83;;;25.80;59.00;;;;;;5028949;28;20447;-52
2021/10/02 10:23:39;;;;;;;3.77;3.47;;;25.40;59.80;;;;;;5018055;28;20799;-52
2021/10/02 10:26:11;;;;;;;3.10;2.80;;;25.00;61.60;;;;;;5023790;28;20474;-52
2021/10/02 10:28:38;;;;;;;3.60;3.20;;;24.50;62.30;;;;;;5024940;28;21020;-51
2021/10/02 10:31:26;;;;;;;3.83;3.53;;;24.00;65.90;;;;;;5019351;28;20441;-52
2021/10/02 10:33:57;;;;;;;3.90;3.60;;;24.00;66.40;;;;;;5012610;28;20805;-52
2021/10/02 10:36:26;;;;;;;3.53;3.23;;;23.80;66.00;;;;;;5029772;28;20452;-51
2021/10/02 10:38:52;;;;;;;3.40;3.10;;;23.70;67.20;;;;;;5031735;28;20781;-51
2021/10/02 10:41:20;;;;;;;4.87;3.80;;;24.00;67.10;;;;;;5030958;28;20602;-51
2021/10/02 10:43:46;;;;;;;4.17;3.80;;;23.90;68.10;;;;;;5024662;28;20566;-51
2021/10/02 10:46:15;;;;;;;3.40;3.10;;;23.80;67.70;;;;;;5027025;28;20447;-52
2021/10/02 10:48:41;;;;;;;4.33;3.93;;;24.30;66.30;;;;;;5029233;28;20853;-51
2021/10/02 10:51:13;;;;;;;3.23;2.83;;;24.60;65.30;;;;;;5032623;28;20451;-52
2021/10/02 10:53:38;;;;;;;4.87;4.40;;;25.40;63.90;;;;;;5026518;28;20646;-52
2021/10/02 10:56:05;;;;;;;3.70;3.40;;;26.30;61.80;;;;;;5026457;28;20531;-52
2021/10/02 10:58:32;;;;;;;3.93;3.63;;;26.90;60.00;;;;;;5029973;28;20287;-51
2021/10/02 11:01:00;;;;;;;5.80;3.30;;;26.80;59.70;;;;;;5026707;28;20441;-51
2021/10/02 11:03:45;;;;;;;3.67;3.37;;;26.30;60.30;;;;;;5025477;28;21001;-52
2021/10/02 11:06:18;;;;;;;3.33;3.03;;;25.80;62.40;;;;;;5024916;28;20434;-52
2021/10/02 11:08:53;;;;;;;4.37;3.30;;;25.60;62.90;;;;;;5034926;28;20467;-52
2021/10/02 11:11:54;;;;;;;3.40;2.93;;;25.20;63.70;;;;;;5031480;28;20438;-52
2021/10/02 11:14:23;;;;;;;3.20;3.00;;;25.00;63.10;;;;;;5017215;28;20759;-52
2021/10/02 11:17:02;;;;;;;3.50;3.20;;;24.80;64.50;;;;;;5025421;28;20481;-49
2021/10/02 11:19:35;;;;;;;3.70;3.40;;;24.70;65.90;;;;;;5026965;28;20841;-49
2021/10/02 11:22:32;;;;;;;4.10;3.53;;;24.50;65.70;;;;;;5031999;28;20476;-49
2021/10/02 11:24:58;;;;;;;3.80;3.50;;;24.40;66.30;;;;;;5031912;28;20429;-50
2021/10/02 11:27:25;;;;;;;4.53;3.80;;;24.50;66.40;;;;;;5027078;28;20469;-50
2021/10/02 11:29:52;;;;;;;3.93;3.53;;;24.40;66.50;;;;;;5027657;28;20444;-50
2021/10/02 11:32:30;;;;;;;3.90;3.37;;;24.50;67.10;;;;;;5032051;28;20869;-51
2021/10/02 11:35:14;;;;;;;4.67;3.20;;;24.40;65.20;;;;;;5027589;28;20498;-50
2021/10/02 11:37:46;;;;;;;4.20;3.07;;;24.30;65.30;;;;;;5032162;28;20575;-50
2021/10/02 11:40:36;;;;;;;3.87;3.53;;;24.10;66.50;;;;;;5029897;28;20456;-50
2021/10/02 11:43:18;;;;;;;3.60;3.30;;;24.00;67.40;;;;;;5029086;28;20556;-50
2021/10/02 11:45:43;;;;;;;4.03;3.63;;;24.20;66.80;;;;;;5028194;28;20445;-49
2021/10/02 11:48:12;;;;;;;3.83;3.20;;;24.10;67.10;;;;;;5040985;28;20491;-48
2021/10/02 11:50:38;;;;;;;3.53;3.20;;;24.20;65.90;;;;;;5028760;28;20194;-50
2021/10/02 11:53:04;;;;;;;3.60;3.30;;;24.20;67.40;;;;;;5031607;28;20443;-49
2021/10/02 11:55:33;;;;;;;3.90;3.50;;;24.30;68.20;;;;;;5035319;28;20441;-51
2021/10/02 11:58:08;;;;;;;3.60;3.30;;;24.30;69.00;;;;;;5022051;28;20447;-51
2021/10/02 12:00:48;;;;;;;3.40;3.10;;;24.40;67.80;;;;;;5022652;28;20246;-51
2021/10/02 12:03:22;;;;;;;3.23;2.93;;;24.50;65.40;;;;;;5028654;28;20448;-51
2021/10/02 12:05:52;;;;;;;4.17;3.87;;;24.70;65.70;;;;;;5026552;28;20445;-51
2021/10/02 12:08:18;;;;;;;3.47;3.17;;;24.60;65.20;;;;;;5029603;28;21016;-51
2021/10/02 12:10:58;;;;;;;3.70;3.40;;;24.60;66.10;;;;;;5027057;28;20514;-51
2021/10/02 12:13:34;;;;;;;3.13;2.93;;;24.60;66.90;;;;;;5022338;28;20457;-51
2021/10/02 12:16:10;;;;;;;3.80;3.50;;;24.70;67.10;;;;;;5029950;28;20452;-50
2021/10/02 12:18:45;;;;;;;3.30;3.00;;;24.50;68.20;;;;;;5030088;28;20537;-50
2021/10/02 12:21:23;;;;;;;4.20;3.47;;;24.60;68.50;;;;;;5025932;28;20454;-51
2021/10/02 12:24:18;;;;;;;3.30;3.10;;;24.70;67.20;;;;;;5030236;28;20433;-51
2021/10/02 12:26:51;;;;;;;3.40;3.10;;;24.80;67.10;;;;;;5027535;28;20441;-51
2021/10/02 12:29:39;;;;;;;4.83;3.03;;;24.70;65.50;;;;;;5022379;28;21028;-51
2021/10/02 12:32:24;;;;;;;6.07;3.80;;;24.60;66.00;;;;;;5030601;28;20456;-51
2021/10/02 12:35:02;;;;;;;4.17;3.57;;;24.50;67.30;;;;;;5030419;28;20453;-51
2021/10/02 12:37:33;;;;;;;5.30;2.83;;;24.50;65.70;;;;;;5022243;28;20436;-51
2021/10/02 12:40:09;;;;;;;4.33;3.10;;;24.30;66.20;;;;;;5034921;28;20528;-51
2021/10/02 12:42:48;;;;;;;4.03;3.60;;;24.20;66.20;;;;;;5033859;28;21008;-51
2021/10/02 12:45:19;;;;;;;4.57;4.17;;;24.20;67.00;;;;;;5031363;28;20436;-51
2021/10/02 12:47:48;;;;;;;3.50;3.20;;;24.30;67.90;;;;;;5022611;28;20461;-51
2021/10/02 12:50:16;;;;;;;3.00;2.80;;;24.20;67.20;;;;;;5032230;28;20439;-51
2021/10/02 12:52:43;;;;;;;2.97;2.77;;;24.30;67.10;;;;;;5030466;28;20891;-51
2021/10/02 12:55:14;;;;;;;3.80;3.50;;;24.40;67.40;;;;;;5027337;28;21143;-51
2021/10/02 12:57:42;;;;;;;4.97;4.13;;;24.40;66.50;;;;;;5029660;28;20473;-51
2021/10/02 13:00:13;;;;;;;3.40;3.00;;;24.40;66.80;;;;;;5022800;28;20494;-51
2021/10/02 13:02:44;;;;;;;3.87;3.57;;;24.50;66.10;;;;;;5029803;28;20510;-51
2021/10/02 13:05:12;;;;;;;4.20;3.73;;;24.60;66.60;;;;;;5029620;28;20527;-51
2021/10/02 13:07:42;;;;;;;3.50;3.20;;;24.70;65.60;;;;;;5021549;28;20531;-52
2021/10/02 13:10:10;;;;;;;4.90;3.67;;;24.80;65.40;;;;;;5027982;28;20445;-51
2021/10/02 13:12:45;;;;;;;4.17;3.77;;;24.90;65.40;;;;;;5024698;28;20452;-51
2021/10/02 13:15:47;;;;;;;4.97;3.83;;;24.90;65.50;;;;;;5031186;28;20447;-50
2021/10/02 13:18:23;;;;;;;3.50;3.20;;;25.00;64.40;;;;;;5025900;28;20475;-52
2021/10/02 13:20:53;;;;;;;3.80;3.40;;;25.00;65.00;;;;;;5021682;28;20529;-51
2021/10/02 13:23:31;;;;;;;3.33;3.03;;;25.00;66.00;;;;;;5027722;28;20443;-49
2021/10/02 13:26:00;;;;;;;2.70;2.40;;;25.10;63.90;;;;;;5030792;28;20436;-49
2021/10/02 13:28:30;;;;;;;3.67;2.93;;;25.00;64.00;;;;;;5024861;28;20481;-51
2021/10/02 13:30:57;;;;;;;3.70;3.40;;;25.10;64.20;;;;;;5023766;28;20433;-50
2021/10/02 13:33:24;;;;;;;3.80;3.43;;;25.10;64.60;;;;;;5032528;28;20444;-50
2021/10/02 13:35:56;;;;;;;8.80;3.50;;;25.00;64.40;;;;;;5024803;28;20445;-50
2021/10/02 13:38:40;;;;;;;3.27;3.00;;;25.00;64.20;;;;;;5026832;28;20492;-50
2021/10/02 13:41:24;;;;;;;4.50;2.90;;;24.90;63.90;;;;;;5025409;28;20441;-49
2021/10/02 13:43:59;;;;;;;5.33;3.27;;;24.90;64.40;;;;;;5034060;28;20801;-50
2021/10/02 13:46:26;;;;;;;5.47;2.93;;;24.90;63.70;;;;;;5034407;28;21066;-49
2021/10/02 13:48:52;;;;;;;3.67;3.37;;;24.80;64.10;;;;;;5031213;28;20502;-50
2021/10/02 13:51:18;;;;;;;4.57;2.87;;;24.70;64.10;;;;;;5026937;28;20441;-50
2021/10/02 13:53:43;;;;;;;4.03;3.20;;;24.60;64.20;;;;;;5027820;28;20368;-50
2021/10/02 13:56:09;;;;;;;3.33;3.03;;;24.60;66.30;;;;;;5033255;28;20190;-51